createdAt,value
2019-03-12T00:00:02.259Z,5.20
2019-03-12T00:02:29.675Z,5.00
2019-03-12T00:04:57.015Z,5.00
2019-03-12T00:07:24.305Z,5.00
2019-03-12T00:09:53.768Z,5.10
2019-03-12T00:12:21.008Z,5.10
2019-03-12T00:14:48.304Z,5.20
2019-03-12T00:17:15.623Z,5.20
2019-03-12T00:19:42.875Z,5.10
2019-03-12T00:22:10.095Z,5.10
2019-03-12T00:24:37.399Z,5.30
2019-03-12T00:27:04.667Z,5.00
2019-03-12T00:29:31.976Z,5.00
2019-03-12T00:31:59.234Z,5.10
2019-03-12T00:34:26.536Z,5.00
2019-03-12T00:36:54.088Z,4.90
2019-03-12T00:39:21.490Z,4.90
2019-03-12T00:41:48.726Z,4.90
2019-03-12T00:44:16.182Z,4.80
2019-03-12T00:46:43.549Z,4.90
2019-03-12T00:49:10.825Z,4.90
2019-03-12T00:51:38.061Z,4.90
2019-03-12T00:54:05.327Z,4.90
2019-03-12T00:56:32.665Z,4.80
2019-03-12T00:59:00.104Z,4.70
2019-03-12T01:01:27.491Z,4.80
2019-03-12T01:03:54.804Z,4.80
2019-03-12T01:06:22.112Z,4.90
2019-03-12T01:08:49.368Z,4.80
2019-03-12T01:11:16.746Z,5.00
2019-03-12T01:13:44.090Z,4.90
2019-03-12T01:16:11.408Z,5.00
2019-03-12T01:18:38.680Z,4.90
2019-03-12T01:21:05.907Z,5.00
2019-03-12T01:23:33.244Z,5.10
2019-03-12T01:26:00.524Z,5.00
2019-03-12T01:28:27.811Z,5.00
2019-03-12T01:30:55.076Z,4.90
2019-03-12T01:33:22.434Z,5.20
2019-03-12T01:35:50.833Z,5.10
2019-03-12T01:38:18.156Z,5.10
2019-03-12T01:40:45.395Z,5.10
2019-03-12T01:43:12.791Z,5.10
2019-03-12T01:45:40.040Z,5.10
2019-03-12T01:48:07.590Z,5.10
2019-03-12T01:50:34.864Z,5.00
2019-03-12T01:53:02.132Z,5.00
2019-03-12T01:55:29.432Z,5.00
2019-03-12T01:57:56.736Z,5.00
2019-03-12T02:00:23.986Z,4.90
2019-03-12T02:02:55.832Z,4.90
2019-03-12T02:05:20.513Z,4.90
2019-03-12T02:07:47.960Z,4.90
2019-03-12T02:10:34.700Z,4.80
2019-03-12T02:13:02.239Z,4.80
2019-03-12T02:15:29.658Z,4.70
2019-03-12T02:17:57.011Z,4.70
2019-03-12T02:20:24.301Z,4.70
2019-03-12T02:22:51.545Z,4.50
2019-03-12T02:25:18.793Z,4.50
2019-03-12T02:27:46.039Z,4.50
2019-03-12T02:30:14.897Z,4.40
2019-03-12T02:32:44.554Z,4.50
2019-03-12T02:35:11.344Z,4.40
2019-03-12T02:37:38.730Z,4.40
2019-03-12T02:40:06.424Z,4.50
2019-03-12T02:42:33.693Z,4.40
2019-03-12T02:45:00.967Z,4.30
2019-03-12T02:47:28.448Z,4.40
2019-03-12T02:49:55.781Z,4.30
2019-03-12T02:52:23.048Z,4.30
2019-03-12T02:54:50.372Z,4.20
2019-03-12T02:57:17.634Z,4.20
2019-03-12T02:59:45.181Z,4.10
2019-03-12T03:02:12.436Z,4.10
2019-03-12T03:04:39.689Z,4.00
2019-03-12T03:07:15.657Z,4.00
2019-03-12T03:09:42.908Z,4.00
2019-03-12T03:12:10.187Z,3.90
2019-03-12T03:14:38.775Z,4.00
2019-03-12T03:17:07.945Z,4.20
2019-03-12T03:19:35.211Z,4.00
2019-03-12T03:22:02.448Z,3.60
2019-03-12T03:24:29.700Z,3.60
2019-03-12T03:26:57.374Z,3.60
2019-03-12T03:29:24.733Z,3.60
2019-03-12T03:31:52.016Z,3.50
2019-03-12T03:34:26.543Z,3.40
2019-03-12T03:36:48.518Z,3.30
2019-03-12T03:39:15.751Z,3.40
2019-03-12T03:41:42.987Z,3.40
2019-03-12T03:44:10.354Z,3.40
2019-03-12T03:46:37.859Z,3.30
2019-03-12T03:49:05.187Z,3.40
2019-03-12T03:51:32.566Z,3.50
2019-03-12T03:53:59.921Z,3.30
2019-03-12T03:56:27.168Z,3.30
2019-03-12T03:58:54.531Z,3.00
2019-03-12T04:01:21.782Z,2.90
2019-03-12T04:03:49.089Z,3.00
2019-03-12T04:06:16.507Z,2.90
2019-03-12T04:08:43.770Z,3.10
2019-03-12T04:11:11.024Z,3.20
2019-03-12T04:13:38.312Z,3.10
2019-03-12T04:16:05.575Z,3.10
2019-03-12T04:18:32.916Z,3.20
2019-03-12T04:21:00.218Z,3.10
2019-03-12T04:23:27.541Z,3.20
2019-03-12T04:25:54.943Z,3.10
2019-03-12T04:28:22.285Z,3.20
2019-03-12T04:30:49.577Z,3.00
2019-03-12T04:33:54.167Z,2.90
2019-03-12T04:36:21.420Z,2.80
2019-03-12T04:38:48.768Z,2.60
2019-03-12T04:41:16.461Z,2.60
2019-03-12T04:43:47.398Z,2.70
2019-03-12T04:46:15.091Z,2.70
2019-03-12T04:48:43.378Z,2.60
2019-03-12T04:51:10.759Z,2.60
2019-03-12T04:53:43.567Z,2.60
2019-03-12T04:56:17.375Z,2.40
2019-03-12T04:58:47.487Z,2.40
2019-03-12T05:01:15.169Z,2.50
2019-03-12T05:03:45.072Z,2.50
2019-03-12T05:06:15.390Z,2.50
2019-03-12T05:08:45.909Z,2.60
2019-03-12T05:11:13.223Z,2.70
2019-03-12T05:13:40.511Z,2.70
2019-03-12T05:16:07.865Z,2.60
2019-03-12T05:18:35.188Z,2.70
2019-03-12T05:21:02.445Z,2.70
2019-03-12T05:23:29.879Z,2.80
2019-03-12T05:25:57.127Z,2.90
2019-03-12T05:28:27.223Z,3.00
2019-03-12T05:30:54.587Z,2.80
2019-03-12T05:33:21.854Z,2.60
2019-03-12T05:35:49.223Z,2.60
2019-03-12T05:38:16.474Z,2.70
2019-03-12T05:40:43.829Z,2.70
2019-03-12T05:43:11.093Z,2.60
2019-03-12T05:45:38.379Z,2.50
2019-03-12T05:48:05.626Z,2.80
2019-03-12T05:50:33.033Z,2.90
2019-03-12T05:53:13.163Z,2.90
2019-03-12T05:55:40.412Z,2.70
2019-03-12T05:58:08.227Z,2.40
2019-03-12T06:00:35.467Z,2.50
2019-03-12T06:03:03.178Z,2.40
2019-03-12T06:05:30.440Z,2.60
2019-03-12T06:07:57.767Z,2.70
2019-03-12T06:10:25.057Z,2.70
2019-03-12T06:12:52.308Z,2.80
2019-03-12T06:15:19.650Z,2.80
2019-03-12T06:17:46.904Z,2.70
2019-03-12T06:20:14.320Z,2.80
2019-03-12T06:22:41.690Z,2.70
2019-03-12T06:25:09.573Z,2.80
2019-03-12T06:27:36.916Z,2.80
2019-03-12T06:30:04.779Z,2.80
2019-03-12T06:32:57.879Z,2.80
2019-03-12T06:35:35.741Z,2.70
2019-03-12T06:38:15.523Z,2.80
2019-03-12T06:40:50.461Z,2.60
2019-03-12T06:43:37.280Z,2.60
2019-03-12T06:46:16.460Z,2.60
2019-03-12T06:49:18.647Z,2.60
2019-03-12T06:52:04.378Z,2.70
2019-03-12T06:55:20.379Z,2.70
2019-03-12T06:58:31.590Z,2.80
2019-03-12T07:01:08.108Z,3.00
2019-03-12T07:03:54.031Z,3.00
2019-03-12T07:06:50.406Z,3.10
2019-03-12T07:09:26.823Z,3.10
2019-03-12T07:12:01.422Z,2.90
2019-03-12T07:14:36.133Z,2.90
2019-03-12T07:17:07.880Z,3.00
2019-03-12T07:19:53.107Z,2.80
2019-03-12T07:22:38.738Z,2.90
2019-03-12T07:25:29.196Z,3.10
2019-03-12T07:28:09.126Z,3.10
2019-03-12T07:30:49.143Z,3.20
2019-03-12T07:33:38.409Z,3.40
2019-03-12T07:36:14.551Z,3.70
2019-03-12T07:39:07.845Z,3.80
2019-03-12T07:41:41.876Z,3.70
2019-03-12T07:44:28.742Z,3.80
2019-03-12T07:47:02.859Z,3.90
2019-03-12T07:49:49.717Z,4.10
2019-03-12T07:52:39.788Z,4.30
2019-03-12T07:55:29.661Z,4.20
2019-03-12T07:58:35.867Z,4.50
2019-03-12T08:01:12.369Z,4.80
2019-03-12T08:04:05.275Z,4.70
2019-03-12T08:06:52.122Z,5.00
2019-03-12T08:09:38.635Z,5.20
2019-03-12T08:12:12.089Z,5.50
2019-03-12T08:14:49.683Z,5.50
2019-03-12T08:17:45.581Z,5.90
2019-03-12T08:20:29.727Z,6.30
2019-03-12T08:23:14.296Z,6.60
2019-03-12T08:25:58.656Z,6.40
2019-03-12T08:28:47.389Z,6.40
2019-03-12T08:31:30.323Z,6.50
2019-03-12T08:34:06.010Z,6.80
2019-03-12T08:37:01.486Z,7.10
2019-03-12T08:39:49.956Z,7.40
2019-03-12T08:42:35.731Z,7.40
2019-03-12T08:45:23.604Z,7.60
2019-03-12T08:48:19.732Z,7.90
2019-03-12T08:51:05.971Z,8.30
2019-03-12T08:54:04.843Z,8.60
2019-03-12T08:56:42.503Z,8.70
2019-03-12T08:59:29.271Z,8.70
2019-03-12T09:02:16.071Z,8.90
2019-03-12T09:05:05.620Z,8.90
2019-03-12T09:07:43.209Z,9.10
2019-03-12T09:10:31.903Z,9.20
2019-03-12T09:13:08.294Z,9.80
2019-03-12T09:16:06.868Z,10.10
2019-03-12T09:18:46.024Z,10.60
2019-03-12T09:21:21.768Z,9.60
2019-03-12T09:24:02.901Z,10.00
2019-03-12T09:26:42.080Z,10.10
2019-03-12T09:29:21.744Z,10.10
2019-03-12T09:32:14.189Z,10.70
2019-03-12T09:34:49.029Z,10.60
2019-03-12T09:37:24.644Z,11.10
2019-03-12T09:40:04.022Z,11.00
2019-03-12T09:42:51.607Z,11.00
2019-03-12T09:45:37.039Z,10.70
2019-03-12T09:48:23.021Z,10.70
2019-03-12T09:50:57.003Z,11.10
2019-03-12T09:53:34.235Z,11.00
2019-03-12T09:56:35.813Z,11.30
2019-03-12T09:59:21.287Z,11.30
2019-03-12T10:02:13.722Z,11.30
2019-03-12T10:04:52.090Z,11.70
2019-03-12T10:07:30.420Z,11.80
2019-03-12T10:10:23.606Z,12.70
2019-03-12T10:13:09.184Z,13.10
2019-03-12T10:15:54.854Z,13.50
2019-03-12T10:18:47.830Z,13.20
2019-03-12T10:21:40.454Z,13.20
2019-03-12T10:24:23.589Z,12.90
2019-03-12T10:27:06.531Z,12.70
2019-03-12T10:29:56.144Z,12.20
2019-03-12T10:32:45.554Z,11.70
2019-03-12T10:35:38.379Z,11.70
2019-03-12T10:39:24.063Z,11.80
2019-03-12T10:41:58.234Z,11.50
2019-03-12T10:44:35.331Z,11.70
2019-03-12T10:47:09.806Z,11.80
2019-03-12T10:49:37.926Z,11.70
2019-03-12T10:52:05.364Z,11.60
2019-03-12T10:54:32.799Z,12.10
2019-03-12T10:57:00.070Z,12.10
2019-03-12T10:59:27.324Z,12.20
2019-03-12T11:01:54.618Z,12.70
2019-03-12T11:04:21.915Z,12.50
2019-03-12T11:06:51.032Z,12.10
2019-03-12T11:09:18.945Z,12.20
2019-03-12T11:11:46.183Z,11.90
2019-03-12T11:14:13.521Z,12.10
2019-03-12T11:16:40.934Z,11.70
2019-03-12T11:19:08.176Z,11.50
2019-03-12T11:21:35.451Z,11.60
2019-03-12T11:24:02.783Z,11.70
2019-03-12T11:26:30.056Z,11.30
2019-03-12T11:28:57.312Z,11.60
2019-03-12T11:31:24.560Z,11.20
2019-03-12T11:33:51.821Z,11.40
2019-03-12T11:36:19.188Z,11.10
2019-03-12T11:38:46.437Z,11.00
2019-03-12T11:41:13.727Z,11.40
2019-03-12T11:43:41.282Z,12.40
2019-03-12T11:46:08.613Z,13.30
2019-03-12T11:48:37.060Z,13.50
2019-03-12T11:51:04.356Z,13.20
2019-03-12T11:53:31.725Z,12.20
2019-03-12T11:55:59.131Z,12.10
2019-03-12T11:58:26.443Z,11.60
2019-03-12T12:01:02.561Z,11.30
2019-03-12T12:03:30.025Z,11.40
2019-03-12T12:05:57.317Z,11.80
2019-03-12T12:08:24.738Z,11.80
2019-03-12T12:10:52.148Z,11.30
2019-03-12T12:13:19.485Z,11.20
2019-03-12T12:15:46.763Z,11.20
2019-03-12T12:18:14.060Z,11.20
2019-03-12T12:20:41.487Z,11.00
2019-03-12T12:23:08.805Z,11.30
2019-03-12T12:25:36.152Z,11.10
2019-03-12T12:28:03.851Z,11.10
2019-03-12T12:30:31.178Z,10.80
2019-03-12T12:32:58.525Z,10.90
2019-03-12T12:35:25.779Z,10.80
2019-03-12T12:37:53.023Z,10.50
2019-03-12T12:40:20.314Z,10.70
2019-03-12T12:42:47.580Z,10.60
2019-03-12T12:45:16.010Z,10.40
2019-03-12T12:47:43.386Z,10.50
2019-03-12T12:50:11.232Z,10.40
2019-03-12T12:52:38.637Z,10.60
2019-03-12T12:55:07.428Z,10.80
2019-03-12T12:57:34.822Z,10.90
2019-03-12T13:00:02.516Z,10.90
2019-03-12T13:02:29.938Z,11.10
2019-03-12T13:04:57.374Z,11.10
2019-03-12T13:07:24.737Z,13.00
2019-03-12T13:09:53.115Z,14.80
2019-03-12T13:12:20.774Z,16.40
2019-03-12T13:14:48.161Z,17.60
2019-03-12T13:17:15.468Z,18.00
2019-03-12T13:19:42.808Z,18.00
2019-03-12T13:22:10.354Z,16.90
2019-03-12T13:24:37.918Z,15.50
2019-03-12T13:27:05.338Z,15.50
2019-03-12T13:29:32.831Z,16.20
2019-03-12T13:32:12.624Z,15.30
2019-03-12T13:34:29.351Z,15.60
2019-03-12T13:36:56.617Z,15.80
2019-03-12T13:39:23.973Z,15.10
2019-03-12T13:41:51.268Z,15.00
2019-03-12T13:44:18.639Z,14.40
2019-03-12T13:46:45.942Z,14.40
2019-03-12T13:49:13.306Z,15.00
2019-03-12T13:51:40.951Z,14.40
2019-03-12T13:54:09.782Z,13.50
2019-03-12T13:56:37.340Z,13.00
2019-03-12T13:59:04.732Z,12.90
2019-03-12T14:01:32.077Z,13.80
2019-03-12T14:04:10.063Z,15.50
2019-03-12T14:06:29.358Z,17.10
2019-03-12T14:08:56.709Z,18.30
2019-03-12T14:11:23.947Z,18.50
2019-03-12T14:13:51.228Z,16.10
2019-03-12T14:16:20.681Z,14.10
2019-03-12T14:18:48.095Z,12.80
2019-03-12T14:21:15.659Z,12.70
2019-03-12T14:23:46.495Z,13.20
2019-03-12T14:26:17.016Z,13.20
2019-03-12T14:28:44.610Z,12.80
2019-03-12T14:31:13.067Z,12.50
2019-03-12T14:33:41.724Z,12.40
2019-03-12T14:36:10.082Z,12.50
2019-03-12T14:38:37.617Z,12.20
2019-03-12T14:41:04.983Z,12.00
2019-03-12T14:43:32.374Z,12.00
2019-03-12T14:45:59.731Z,11.70
2019-03-12T14:48:38.061Z,11.60
2019-03-12T14:51:09.617Z,11.70
2019-03-12T14:53:37.171Z,11.70
2019-03-12T14:56:05.485Z,11.60
2019-03-12T14:58:33.413Z,11.40
2019-03-12T15:01:00.853Z,11.20
2019-03-12T15:03:28.173Z,11.10
2019-03-12T15:05:55.543Z,11.00
2019-03-12T15:08:22.985Z,11.10
2019-03-12T15:10:50.273Z,11.20
2019-03-12T15:13:17.692Z,10.90
2019-03-12T15:15:44.971Z,11.00
2019-03-12T15:18:18.514Z,11.00
2019-03-12T15:20:46.513Z,10.80
2019-03-12T15:23:13.803Z,10.80
2019-03-12T15:25:47.088Z,10.80
2019-03-12T15:28:14.610Z,10.70
2019-03-12T15:30:47.783Z,10.70
2019-03-12T15:33:17.629Z,10.70
2019-03-12T15:35:45.028Z,10.60
2019-03-12T15:38:12.384Z,10.50
2019-03-12T15:40:39.776Z,10.30
2019-03-12T15:43:07.099Z,10.40
2019-03-12T15:45:34.377Z,10.20
2019-03-12T15:48:01.791Z,10.10
2019-03-12T15:50:29.100Z,10.10
2019-03-12T15:53:02.472Z,10.10
2019-03-12T15:55:29.938Z,10.00
2019-03-12T15:57:57.316Z,9.90
2019-03-12T16:00:24.899Z,9.90
2019-03-12T16:02:52.303Z,9.90
2019-03-12T16:05:19.679Z,9.80
2019-03-12T16:07:47.071Z,9.80
2019-03-12T16:10:14.344Z,9.80
2019-03-12T16:12:44.549Z,9.60
2019-03-12T16:15:12.756Z,9.70
2019-03-12T16:17:40.180Z,9.70
2019-03-12T16:20:09.397Z,9.70
2019-03-12T16:22:40.583Z,9.70
2019-03-12T16:25:07.871Z,9.60
2019-03-12T16:27:35.249Z,9.70
2019-03-12T16:30:03.381Z,9.60
2019-03-12T16:32:30.938Z,9.50
2019-03-12T16:35:00.368Z,9.60
2019-03-12T16:37:36.143Z,9.50
2019-03-12T16:40:06.419Z,9.60
2019-03-12T16:42:39.737Z,9.60
2019-03-12T16:45:14.239Z,9.40
2019-03-12T16:47:41.779Z,9.50
2019-03-12T16:50:09.388Z,9.50
2019-03-12T16:52:38.237Z,9.50
2019-03-12T16:55:05.528Z,9.50
2019-03-12T16:57:32.873Z,9.50
2019-03-12T17:00:00.433Z,9.40
2019-03-12T17:02:27.964Z,9.30
2019-03-12T17:04:55.686Z,9.30
2019-03-12T17:07:23.188Z,9.30
2019-03-12T17:09:53.922Z,9.30
2019-03-12T17:12:28.473Z,9.30
2019-03-12T17:14:56.579Z,9.10
2019-03-12T17:17:23.982Z,9.20
2019-03-12T17:19:53.898Z,9.20
2019-03-12T17:22:21.171Z,9.10
2019-03-12T17:24:48.415Z,9.30
2019-03-12T17:27:15.998Z,9.10
2019-03-12T17:29:43.324Z,9.20
2019-03-12T17:32:10.926Z,9.20
2019-03-12T17:34:38.466Z,9.10
2019-03-12T17:37:05.885Z,9.10
2019-03-12T17:39:33.247Z,9.10
2019-03-12T17:42:00.680Z,9.20
2019-03-12T17:44:28.026Z,9.20
2019-03-12T17:46:55.427Z,9.10
2019-03-12T17:49:22.671Z,9.10
2019-03-12T17:51:49.952Z,9.00
2019-03-12T17:54:18.680Z,9.20
2019-03-12T17:56:45.984Z,9.10
2019-03-12T17:59:13.227Z,9.10
2019-03-12T18:01:40.470Z,9.10
2019-03-12T18:04:07.742Z,9.00
2019-03-12T18:06:35.368Z,9.10
2019-03-12T18:09:08.393Z,9.10
2019-03-12T18:11:35.002Z,9.20
2019-03-12T18:14:02.343Z,9.20
2019-03-12T18:16:40.354Z,9.20
2019-03-12T18:18:58.857Z,9.10
2019-03-12T18:21:26.150Z,9.30
2019-03-12T18:23:53.424Z,9.20
2019-03-12T18:26:20.712Z,9.10
2019-03-12T18:28:48.106Z,9.10
2019-03-12T18:31:15.461Z,9.10
2019-03-12T18:33:42.795Z,9.20
2019-03-12T18:36:10.156Z,9.20
2019-03-12T18:38:37.519Z,9.20
2019-03-12T18:41:04.780Z,9.30
2019-03-12T18:43:32.029Z,9.30
2019-03-12T18:45:59.465Z,9.20
2019-03-12T18:48:26.848Z,9.20
2019-03-12T18:50:54.235Z,9.30
2019-03-12T18:53:21.603Z,9.30
2019-03-12T18:56:06.505Z,9.40
2019-03-12T18:58:33.921Z,9.40
2019-03-12T19:01:12.151Z,9.40
2019-03-12T19:03:39.543Z,9.40
2019-03-12T19:06:09.935Z,9.30
2019-03-12T19:08:36.177Z,9.30
2019-03-12T19:11:03.623Z,9.50
2019-03-12T19:13:30.875Z,9.40
2019-03-12T19:15:58.124Z,9.50
2019-03-12T19:18:25.463Z,9.50
2019-03-12T19:20:52.692Z,9.40
2019-03-12T19:23:23.410Z,9.50
2019-03-12T19:25:50.660Z,9.50
2019-03-12T19:28:18.000Z,9.40
2019-03-12T19:30:45.357Z,9.60
2019-03-12T19:33:14.135Z,9.50
2019-03-12T19:35:41.395Z,9.50
2019-03-12T19:38:08.664Z,9.40
2019-03-12T19:40:36.410Z,9.40
2019-03-12T19:43:03.787Z,9.40
2019-03-12T19:45:31.565Z,9.50
2019-03-12T19:47:58.800Z,9.40
2019-03-12T19:50:26.368Z,9.40
2019-03-12T19:52:53.709Z,9.40
2019-03-12T19:55:23.940Z,9.50
2019-03-12T19:57:51.580Z,9.40
2019-03-12T20:00:20.586Z,9.40
2019-03-12T20:02:47.935Z,9.40
2019-03-12T20:05:15.244Z,9.40
2019-03-12T20:07:42.539Z,9.30
2019-03-12T20:10:36.083Z,9.30
2019-03-12T20:13:47.592Z,9.30
2019-03-12T20:17:09.388Z,9.30
2019-03-12T20:20:26.849Z,9.30
2019-03-12T20:23:33.210Z,9.30
2019-03-12T20:26:38.323Z,9.30
2019-03-12T20:29:53.955Z,9.30
2019-03-12T20:33:05.340Z,9.30
2019-03-12T20:36:08.983Z,9.30
2019-03-12T20:39:26.528Z,9.40
2019-03-12T20:42:31.848Z,9.40
2019-03-12T20:45:35.880Z,9.40
2019-03-12T20:48:51.227Z,9.40
2019-03-12T20:51:55.524Z,9.30
2019-03-12T20:55:16.666Z,9.40
2019-03-12T20:58:34.975Z,9.50
2019-03-12T21:01:58.048Z,9.50
2019-03-12T21:05:02.161Z,9.60
2019-03-12T21:08:42.123Z,9.70
2019-03-12T21:11:42.696Z,9.60
2019-03-12T21:15:00.563Z,9.70
2019-03-12T21:18:05.307Z,9.70
2019-03-12T21:21:21.005Z,9.70
2019-03-12T21:24:12.191Z,9.70
2019-03-12T21:27:27.100Z,9.70
2019-03-12T21:29:53.395Z,9.80
2019-03-12T21:32:20.771Z,9.80
2019-03-12T21:34:48.207Z,9.80
2019-03-12T21:37:15.581Z,9.60
2019-03-12T21:39:54.400Z,9.70
2019-03-12T21:42:12.072Z,9.70
2019-03-12T21:44:39.458Z,9.70
2019-03-12T21:47:06.731Z,9.70
2019-03-12T21:49:34.007Z,9.50
2019-03-12T21:52:01.325Z,9.60
2019-03-12T21:54:28.683Z,9.50
2019-03-12T21:56:55.966Z,9.70
2019-03-12T21:59:23.307Z,9.60
2019-03-12T22:01:50.576Z,9.50
2019-03-12T22:04:17.824Z,9.50
2019-03-12T22:06:45.077Z,9.60
2019-03-12T22:09:12.328Z,9.50
2019-03-12T22:11:39.688Z,9.50
2019-03-12T22:14:07.099Z,9.60
2019-03-12T22:16:34.352Z,9.70
2019-03-12T22:19:01.661Z,9.70
2019-03-12T22:21:43.946Z,9.70
2019-03-12T22:24:11.699Z,9.70
2019-03-12T22:26:38.996Z,9.70
2019-03-12T22:29:06.312Z,9.80
2019-03-12T22:31:33.570Z,9.80
2019-03-12T22:34:00.881Z,9.80
2019-03-12T22:36:28.164Z,9.80
2019-03-12T22:38:55.526Z,9.80
2019-03-12T22:41:22.761Z,9.70
2019-03-12T22:43:50.044Z,9.80
2019-03-12T22:46:17.309Z,9.80
2019-03-12T22:48:44.623Z,9.90
2019-03-12T22:51:11.867Z,9.90
2019-03-12T22:53:39.155Z,10.00
2019-03-12T22:56:06.453Z,10.00
2019-03-12T22:58:33.691Z,10.10
2019-03-12T23:01:01.068Z,10.20
2019-03-12T23:03:28.324Z,10.40
2019-03-12T23:05:55.575Z,10.40
2019-03-12T23:08:22.946Z,10.40
2019-03-12T23:10:50.225Z,10.40
2019-03-12T23:13:17.776Z,10.40
2019-03-12T23:15:45.297Z,10.40
2019-03-12T23:18:12.552Z,10.30
2019-03-12T23:20:39.787Z,10.10
2019-03-12T23:23:07.258Z,9.70
2019-03-12T23:25:34.632Z,9.70
2019-03-12T23:28:01.871Z,9.50
2019-03-12T23:30:29.184Z,9.40
2019-03-12T23:32:56.506Z,9.40
2019-03-12T23:35:23.769Z,9.30
2019-03-12T23:37:51.113Z,9.40
2019-03-12T23:40:18.472Z,9.20
2019-03-12T23:42:45.736Z,9.10
2019-03-12T23:45:14.092Z,9.20
2019-03-12T23:47:41.350Z,9.10
2019-03-12T23:50:09.001Z,9.00
2019-03-12T23:52:36.234Z,9.00
2019-03-12T23:55:04.048Z,9.00
2019-03-12T23:57:31.291Z,8.80
2019-03-12T23:59:58.627Z,8.80
